sensor_id;sensor_type;location;lat;lon;timestamp;temperature;humidity
1476;DHT22;730;48.870;12.542;2024-01-27T00:01:51;4.10;1.00
1476;DHT22;730;48.870;12.542;2024-01-27T00:04:17;4.10;1.00
1476;DHT22;730;48.870;12.542;2024-01-27T00:06:43;4.10;1.00
1476;DHT22;730;48.870;12.542;2024-01-27T00:09:09;4.10;1.00
1476;DHT22;730;48.870;12.542;2024-01-27T00:11:35;4.00;1.00
1476;DHT22;730;48.870;12.542;2024-01-27T00:14:01;4.00;1.00
1476;DHT22;730;48.870;12.542;2024-01-27T00:16:28;4.00;1.00
1476;DHT22;730;48.870;12.542;2024-01-27T00:18:54;3.90;1.00
1476;DHT22;730;48.870;12.542;2024-01-27T00:21:20;3.90;1.00
1476;DHT22;730;48.870;12.542;2024-01-27T00:23:46;4.00;1.00
1476;DHT22;730;48.870;12.542;2024-01-27T00:26:12;3.90;1.00
1476;DHT22;730;48.870;12.542;2024-01-27T00:28:39;3.90;1.00
1476;DHT22;730;48.870;12.542;2024-01-27T00:31:05;3.80;1.00
1476;DHT22;730;48.870;12.542;2024-01-27T00:33:31;3.80;1.00
1476;DHT22;730;48.870;12.542;2024-01-27T00:35:57;3.80;1.00
1476;DHT22;730;48.870;12.542;2024-01-27T00:38:23;3.70;1.00
1476;DHT22;730;48.870;12.542;2024-01-27T00:40:49;3.60;1.00
1476;DHT22;730;48.870;12.542;2024-01-27T00:43:15;3.60;1.00
1476;DHT22;730;48.870;12.542;2024-01-27T00:45:41;3.50;1.00
1476;DHT22;730;48.870;12.542;2024-01-27T00:48:07;3.60;1.00
1476;DHT22;730;48.870;12.542;2024-01-27T00:50:33;3.50;1.00
1476;DHT22;730;48.870;12.542;2024-01-27T00:52:59;3.50;1.00
1476;DHT22;730;48.870;12.542;2024-01-27T00:55:25;3.50;1.00
1476;DHT22;730;48.870;12.542;2024-01-27T00:57:51;3.40;1.00
1476;DHT22;730;48.870;12.542;2024-01-27T01:00:19;3.40;1.00
1476;DHT22;730;48.870;12.542;2024-01-27T01:02:45;3.40;1.00
1476;DHT22;730;48.870;12.542;2024-01-27T01:05:11;3.40;1.00
1476;DHT22;730;48.870;12.542;2024-01-27T01:07:37;3.40;1.00
1476;DHT22;730;48.870;12.542;2024-01-27T01:10:03;3.40;1.00
1476;DHT22;730;48.870;12.542;2024-01-27T01:12:30;3.40;1.00
1476;DHT22;730;48.870;12.542;2024-01-27T01:14:56;3.40;1.00
1476;DHT22;730;48.870;12.542;2024-01-27T01:17:22;3.30;1.00
1476;DHT22;730;48.870;12.542;2024-01-27T01:19:49;3.30;1.00
1476;DHT22;730;48.870;12.542;2024-01-27T01:22:15;3.30;1.00
1476;DHT22;730;48.870;12.542;2024-01-27T01:24:41;3.20;1.00
1476;DHT22;730;48.870;12.542;2024-01-27T01:27:07;3.20;1.00
1476;DHT22;730;48.870;12.542;2024-01-27T01:29:33;3.20;1.00
1476;DHT22;730;48.870;12.542;2024-01-27T01:31:59;3.10;1.00
1476;DHT22;730;48.870;12.542;2024-01-27T01:34:27;3.10;1.00
1476;DHT22;730;48.870;12.542;2024-01-27T01:36:53;3.00;1.00
1476;DHT22;730;48.870;12.542;2024-01-27T01:39:20;3.00;1.00
1476;DHT22;730;48.870;12.542;2024-01-27T01:41:46;3.00;1.00
1476;DHT22;730;48.870;12.542;2024-01-27T01:44:12;2.90;1.00
1476;DHT22;730;48.870;12.542;2024-01-27T01:46:38;2.90;1.00
1476;DHT22;730;48.870;12.542;2024-01-27T01:49:04;2.90;1.00
1476;DHT22;730;48.870;12.542;2024-01-27T01:51:30;2.90;1.00
1476;DHT22;730;48.870;12.542;2024-01-27T01:54:00;2.90;1.00
1476;DHT22;730;48.870;12.542;2024-01-27T01:56:26;2.90;1.00
1476;DHT22;730;48.870;12.542;2024-01-27T01:58:54;2.90;1.00
1476;DHT22;730;48.870;12.542;2024-01-27T02:01:20;2.90;1.00
1476;DHT22;730;48.870;12.542;2024-01-27T02:03:54;2.90;1.00
1476;DHT22;730;48.870;12.542;2024-01-27T02:06:20;3.00;1.00
1476;DHT22;730;48.870;12.542;2024-01-27T02:08:47;2.90;1.00
1476;DHT22;730;48.870;12.542;2024-01-27T02:11:13;2.90;1.00
1476;DHT22;730;48.870;12.542;2024-01-27T02:13:39;3.00;1.00
1476;DHT22;730;48.870;12.542;2024-01-27T02:16:05;3.00;1.00
1476;DHT22;730;48.870;12.542;2024-01-27T02:18:32;3.00;1.00
1476;DHT22;730;48.870;12.542;2024-01-27T02:20:58;3.00;1.00
1476;DHT22;730;48.870;12.542;2024-01-27T02:23:24;3.00;1.00
1476;DHT22;730;48.870;12.542;2024-01-27T02:25:50;3.00;1.00
1476;DHT22;730;48.870;12.542;2024-01-27T02:28:16;3.00;1.00
1476;DHT22;730;48.870;12.542;2024-01-27T02:30:43;2.90;1.00
1476;DHT22;730;48.870;12.542;2024-01-27T02:33:09;2.90;1.00
1476;DHT22;730;48.870;12.542;2024-01-27T02:35:35;2.90;1.00
1476;DHT22;730;48.870;12.542;2024-01-27T02:38:01;2.90;1.00
1476;DHT22;730;48.870;12.542;2024-01-27T02:40:27;2.90;1.00
1476;DHT22;730;48.870;12.542;2024-01-27T02:42:54;2.90;1.00
1476;DHT22;730;48.870;12.542;2024-01-27T02:45:20;2.90;1.00
1476;DHT22;730;48.870;12.542;2024-01-27T02:47:46;2.90;1.00
1476;DHT22;730;48.870;12.542;2024-01-27T02:50:12;2.80;1.00
1476;DHT22;730;48.870;12.542;2024-01-27T02:52:38;2.80;1.00
1476;DHT22;730;48.870;12.542;2024-01-27T02:55:05;2.80;1.00
1476;DHT22;730;48.870;12.542;2024-01-27T02:57:31;2.90;1.00
1476;DHT22;730;48.870;12.542;2024-01-27T02:59:58;2.80;1.00
1476;DHT22;730;48.870;12.542;2024-01-27T03:02:24;2.90;1.00
1476;DHT22;730;48.870;12.542;2024-01-27T03:04:50;2.90;1.00
1476;DHT22;730;48.870;12.542;2024-01-27T03:07:16;2.90;1.00
1476;DHT22;730;48.870;12.542;2024-01-27T03:09:42;2.90;1.00
1476;DHT22;730;48.870;12.542;2024-01-27T03:12:08;2.90;1.00
1476;DHT22;730;48.870;12.542;2024-01-27T03:14:34;2.90;1.00
1476;DHT22;730;48.870;12.542;2024-01-27T03:17:00;2.90;1.00
1476;DHT22;730;48.870;12.542;2024-01-27T03:19:26;2.80;1.00
1476;DHT22;730;48.870;12.542;2024-01-27T03:21:52;2.80;1.00
1476;DHT22;730;48.870;12.542;2024-01-27T03:24:18;2.80;1.00
1476;DHT22;730;48.870;12.542;2024-01-27T03:26:44;2.80;1.00
1476;DHT22;730;48.870;12.542;2024-01-27T03:29:11;2.80;1.00
1476;DHT22;730;48.870;12.542;2024-01-27T03:31:37;2.80;1.00
1476;DHT22;730;48.870;12.542;2024-01-27T03:34:03;2.80;1.00
1476;DHT22;730;48.870;12.542;2024-01-27T03:36:29;2.80;1.00
1476;DHT22;730;48.870;12.542;2024-01-27T03:38:56;2.70;1.00
1476;DHT22;730;48.870;12.542;2024-01-27T03:41:23;2.70;1.00
1476;DHT22;730;48.870;12.542;2024-01-27T03:43:49;2.60;1.00
1476;DHT22;730;48.870;12.542;2024-01-27T03:46:15;2.60;1.00
1476;DHT22;730;48.870;12.542;2024-01-27T03:48:42;2.60;1.00
1476;DHT22;730;48.870;12.542;2024-01-27T03:51:08;2.60;1.00
1476;DHT22;730;48.870;12.542;2024-01-27T03:53:34;2.60;1.00
1476;DHT22;730;48.870;12.542;2024-01-27T03:56:01;2.50;1.00
1476;DHT22;730;48.870;12.542;2024-01-27T03:58:30;2.60;1.00
1476;DHT22;730;48.870;12.542;2024-01-27T04:00:57;2.60;1.00
1476;DHT22;730;48.870;12.542;2024-01-27T04:03:32;2.60;1.00
1476;DHT22;730;48.870;12.542;2024-01-27T04:05:58;2.60;1.00
1476;DHT22;730;48.870;12.542;2024-01-27T04:08:24;2.60;1.00
1476;DHT22;730;48.870;12.542;2024-01-27T04:10:50;2.60;1.00
1476;DHT22;730;48.870;12.542;2024-01-27T04:13:16;2.60;1.00
1476;DHT22;730;48.870;12.542;2024-01-27T04:15:42;2.60;1.00
1476;DHT22;730;48.870;12.542;2024-01-27T04:18:08;2.60;1.00
1476;DHT22;730;48.870;12.542;2024-01-27T04:20:35;2.60;1.00
1476;DHT22;730;48.870;12.542;2024-01-27T04:23:01;2.60;1.00
1476;DHT22;730;48.870;12.542;2024-01-27T04:25:28;2.50;1.00
1476;DHT22;730;48.870;12.542;2024-01-27T04:27:54;2.50;1.00
1476;DHT22;730;48.870;12.542;2024-01-27T04:30:20;2.50;1.00
1476;DHT22;730;48.870;12.542;2024-01-27T04:32:46;2.50;1.00
1476;DHT22;730;48.870;12.542;2024-01-27T04:35:15;2.50;1.00
1476;DHT22;730;48.870;12.542;2024-01-27T04:37:41;2.50;1.00
1476;DHT22;730;48.870;12.542;2024-01-27T04:40:07;2.50;1.00
1476;DHT22;730;48.870;12.542;2024-01-27T04:42:43;2.50;1.00
1476;DHT22;730;48.870;12.542;2024-01-27T04:45:09;2.40;1.00
1476;DHT22;730;48.870;12.542;2024-01-27T04:47:35;2.50;1.00
1476;DHT22;730;48.870;12.542;2024-01-27T04:50:01;2.40;1.00
1476;DHT22;730;48.870;12.542;2024-01-27T04:52:29;2.40;1.00
1476;DHT22;730;48.870;12.542;2024-01-27T04:54:55;2.40;1.00
1476;DHT22;730;48.870;12.542;2024-01-27T04:57:21;2.40;1.00
1476;DHT22;730;48.870;12.542;2024-01-27T04:59:47;2.50;1.00
1476;DHT22;730;48.870;12.542;2024-01-27T05:02:13;2.40;1.00
1476;DHT22;730;48.870;12.542;2024-01-27T05:04:39;2.40;1.00
1476;DHT22;730;48.870;12.542;2024-01-27T05:07:05;2.30;1.00
1476;DHT22;730;48.870;12.542;2024-01-27T05:09:31;2.30;1.00
1476;DHT22;730;48.870;12.542;2024-01-27T05:12:00;2.30;1.00
1476;DHT22;730;48.870;12.542;2024-01-27T05:14:31;2.30;1.00
1476;DHT22;730;48.870;12.542;2024-01-27T05:16:57;2.30;1.00
1476;DHT22;730;48.870;12.542;2024-01-27T05:19:23;2.20;1.00
1476;DHT22;730;48.870;12.542;2024-01-27T05:21:49;2.20;1.00
1476;DHT22;730;48.870;12.542;2024-01-27T05:24:16;2.30;1.00
1476;DHT22;730;48.870;12.542;2024-01-27T05:26:42;2.20;1.00
1476;DHT22;730;48.870;12.542;2024-01-27T05:29:08;2.20;1.00
1476;DHT22;730;48.870;12.542;2024-01-27T05:31:34;2.30;1.00
1476;DHT22;730;48.870;12.542;2024-01-27T05:34:01;2.20;1.00
1476;DHT22;730;48.870;12.542;2024-01-27T05:36:27;2.30;1.00
1476;DHT22;730;48.870;12.542;2024-01-27T05:38:53;2.20;1.00
1476;DHT22;730;48.870;12.542;2024-01-27T05:41:19;2.30;1.00
1476;DHT22;730;48.870;12.542;2024-01-27T05:43:45;2.20;1.00
1476;DHT22;730;48.870;12.542;2024-01-27T05:46:12;2.20;1.00
1476;DHT22;730;48.870;12.542;2024-01-27T05:48:38;2.20;1.00
1476;DHT22;730;48.870;12.542;2024-01-27T05:51:04;2.20;1.00
1476;DHT22;730;48.870;12.542;2024-01-27T05:53:30;2.20;1.00
1476;DHT22;730;48.870;12.542;2024-01-27T05:55:56;2.10;1.00
1476;DHT22;730;48.870;12.542;2024-01-27T05:58:24;2.10;1.00
1476;DHT22;730;48.870;12.542;2024-01-27T06:00:51;2.20;1.00
1476;DHT22;730;48.870;12.542;2024-01-27T06:03:17;2.20;1.00
1476;DHT22;730;48.870;12.542;2024-01-27T06:05:43;2.10;1.00
1476;DHT22;730;48.870;12.542;2024-01-27T06:08:09;2.10;1.00
1476;DHT22;730;48.870;12.542;2024-01-27T06:10:35;2.10;1.00
1476;DHT22;730;48.870;12.542;2024-01-27T06:13:05;2.10;1.00
1476;DHT22;730;48.870;12.542;2024-01-27T06:15:31;2.10;1.00
1476;DHT22;730;48.870;12.542;2024-01-27T06:17:57;2.10;1.00
1476;DHT22;730;48.870;12.542;2024-01-27T06:20:23;2.10;1.00
1476;DHT22;730;48.870;12.542;2024-01-27T06:22:51;2.10;1.00
1476;DHT22;730;48.870;12.542;2024-01-27T06:25:23;2.10;1.00
1476;DHT22;730;48.870;12.542;2024-01-27T06:27:49;2.10;1.00
1476;DHT22;730;48.870;12.542;2024-01-27T06:30:15;2.10;1.00
1476;DHT22;730;48.870;12.542;2024-01-27T06:32:42;2.10;1.00
1476;DHT22;730;48.870;12.542;2024-01-27T06:35:08;2.10;1.00
1476;DHT22;730;48.870;12.542;2024-01-27T06:37:34;2.10;1.00
1476;DHT22;730;48.870;12.542;2024-01-27T06:40:02;2.00;1.00
1476;DHT22;730;48.870;12.542;2024-01-27T06:42:29;2.00;1.00
1476;DHT22;730;48.870;12.542;2024-01-27T06:44:55;2.00;1.00
1476;DHT22;730;48.870;12.542;2024-01-27T06:47:21;2.00;1.00
1476;DHT22;730;48.870;12.542;2024-01-27T06:49:47;2.00;1.00
1476;DHT22;730;48.870;12.542;2024-01-27T06:52:13;1.90;1.00
1476;DHT22;730;48.870;12.542;2024-01-27T06:54:39;1.90;1.00
1476;DHT22;730;48.870;12.542;2024-01-27T06:57:23;1.90;1.00
1476;DHT22;730;48.870;12.542;2024-01-27T06:59:51;1.90;1.00
1476;DHT22;730;48.870;12.542;2024-01-27T07:02:22;1.90;1.00
1476;DHT22;730;48.870;12.542;2024-01-27T07:04:48;2.00;1.00
1476;DHT22;730;48.870;12.542;2024-01-27T07:07:14;1.90;1.00
1476;DHT22;730;48.870;12.542;2024-01-27T07:09:40;1.90;1.00
1476;DHT22;730;48.870;12.542;2024-01-27T07:12:06;1.90;1.00
1476;DHT22;730;48.870;12.542;2024-01-27T07:14:33;2.00;1.00
1476;DHT22;730;48.870;12.542;2024-01-27T07:16:59;2.00;1.00
1476;DHT22;730;48.870;12.542;2024-01-27T07:19:25;2.00;1.00
1476;DHT22;730;48.870;12.542;2024-01-27T07:21:51;2.00;1.00
1476;DHT22;730;48.870;12.542;2024-01-27T07:24:17;2.10;1.00
1476;DHT22;730;48.870;12.542;2024-01-27T07:26:43;2.10;1.00
1476;DHT22;730;48.870;12.542;2024-01-27T07:29:09;2.10;1.00
1476;DHT22;730;48.870;12.542;2024-01-27T07:31:42;2.20;1.00
1476;DHT22;730;48.870;12.542;2024-01-27T07:34:08;2.30;1.00
1476;DHT22;730;48.870;12.542;2024-01-27T07:36:34;2.40;1.00
1476;DHT22;730;48.870;12.542;2024-01-27T07:39:00;2.50;1.00
1476;DHT22;730;48.870;12.542;2024-01-27T07:41:27;2.60;1.00
1476;DHT22;730;48.870;12.542;2024-01-27T07:43:54;2.70;1.00
1476;DHT22;730;48.870;12.542;2024-01-27T07:46:20;2.80;1.00
1476;DHT22;730;48.870;12.542;2024-01-27T07:48:48;2.90;1.00
1476;DHT22;730;48.870;12.542;2024-01-27T07:51:16;3.10;1.00
1476;DHT22;730;48.870;12.542;2024-01-27T07:53:42;3.20;1.00
1476;DHT22;730;48.870;12.542;2024-01-27T07:56:08;3.30;1.00
1476;DHT22;730;48.870;12.542;2024-01-27T07:58:34;3.40;1.00
1476;DHT22;730;48.870;12.542;2024-01-27T08:01:00;3.60;1.00
1476;DHT22;730;48.870;12.542;2024-01-27T08:03:26;3.70;1.00
1476;DHT22;730;48.870;12.542;2024-01-27T08:05:52;3.70;1.00
1476;DHT22;730;48.870;12.542;2024-01-27T08:08:18;3.90;1.00
1476;DHT22;730;48.870;12.542;2024-01-27T08:10:44;4.00;1.00
1476;DHT22;730;48.870;12.542;2024-01-27T08:13:11;4.20;1.00
1476;DHT22;730;48.870;12.542;2024-01-27T08:15:37;4.30;1.00
1476;DHT22;730;48.870;12.542;2024-01-27T08:18:03;4.30;1.00
1476;DHT22;730;48.870;12.542;2024-01-27T08:20:29;4.40;1.00
1476;DHT22;730;48.870;12.542;2024-01-27T08:22:55;4.50;1.00
1476;DHT22;730;48.870;12.542;2024-01-27T08:25:21;4.60;1.00
1476;DHT22;730;48.870;12.542;2024-01-27T08:27:47;4.60;1.00
1476;DHT22;730;48.870;12.542;2024-01-27T08:30:14;4.60;1.00
1476;DHT22;730;48.870;12.542;2024-01-27T08:32:40;4.70;1.00
1476;DHT22;730;48.870;12.542;2024-01-27T08:35:06;4.80;1.00
1476;DHT22;730;48.870;12.542;2024-01-27T08:37:32;4.90;1.00
1476;DHT22;730;48.870;12.542;2024-01-27T08:40:05;5.10;1.00
1476;DHT22;730;48.870;12.542;2024-01-27T08:42:31;5.30;1.00
1476;DHT22;730;48.870;12.542;2024-01-27T08:44:57;5.40;1.00
1476;DHT22;730;48.870;12.542;2024-01-27T08:47:24;5.50;1.00
1476;DHT22;730;48.870;12.542;2024-01-27T08:49:50;5.60;1.00
1476;DHT22;730;48.870;12.542;2024-01-27T08:52:16;5.70;1.00
1476;DHT22;730;48.870;12.542;2024-01-27T08:54:42;5.90;1.00
1476;DHT22;730;48.870;12.542;2024-01-27T08:57:08;6.10;1.00
1476;DHT22;730;48.870;12.542;2024-01-27T08:59:34;6.30;1.00
1476;DHT22;730;48.870;12.542;2024-01-27T09:02:01;6.40;1.00
1476;DHT22;730;48.870;12.542;2024-01-27T09:04:27;6.60;1.00
1476;DHT22;730;48.870;12.542;2024-01-27T09:06:53;6.80;1.00
1476;DHT22;730;48.870;12.542;2024-01-27T09:09:19;6.90;1.00
1476;DHT22;730;48.870;12.542;2024-01-27T09:11:45;7.20;1.00
1476;DHT22;730;48.870;12.542;2024-01-27T09:14:12;7.40;1.00
1476;DHT22;730;48.870;12.542;2024-01-27T09:16:38;7.60;1.00
1476;DHT22;730;48.870;12.542;2024-01-27T09:19:06;7.90;1.00
1476;DHT22;730;48.870;12.542;2024-01-27T09:21:32;8.10;1.00
1476;DHT22;730;48.870;12.542;2024-01-27T09:23:58;8.30;1.00
1476;DHT22;730;48.870;12.542;2024-01-27T09:26:26;8.50;1.00
1476;DHT22;730;48.870;12.542;2024-01-27T09:28:53;8.60;1.00
1476;DHT22;730;48.870;12.542;2024-01-27T09:31:22;8.80;1.00
1476;DHT22;730;48.870;12.542;2024-01-27T09:33:52;8.90;1.00
1476;DHT22;730;48.870;12.542;2024-01-27T09:36:20;9.00;1.00
1476;DHT22;730;48.870;12.542;2024-01-27T09:38:46;9.00;1.00
1476;DHT22;730;48.870;12.542;2024-01-27T09:41:13;9.10;1.00
1476;DHT22;730;48.870;12.542;2024-01-27T09:43:43;9.20;1.00
1476;DHT22;730;48.870;12.542;2024-01-27T09:46:14;9.30;1.00
1476;DHT22;730;48.870;12.542;2024-01-27T09:48:41;9.40;1.00
1476;DHT22;730;48.870;12.542;2024-01-27T09:51:08;9.40;1.00
1476;DHT22;730;48.870;12.542;2024-01-27T09:53:35;9.40;1.00
1476;DHT22;730;48.870;12.542;2024-01-27T09:56:02;9.50;1.00
1476;DHT22;730;48.870;12.542;2024-01-27T09:58:32;9.50;1.00
1476;DHT22;730;48.870;12.542;2024-01-27T10:00:59;9.60;1.00
1476;DHT22;730;48.870;12.542;2024-01-27T10:03:26;9.60;1.00
1476;DHT22;730;48.870;12.542;2024-01-27T10:05:55;9.60;1.00
1476;DHT22;730;48.870;12.542;2024-01-27T10:08:22;9.60;1.00
1476;DHT22;730;48.870;12.542;2024-01-27T10:10:54;9.50;1.00
1476;DHT22;730;48.870;12.542;2024-01-27T10:13:23;9.50;1.00
1476;DHT22;730;48.870;12.542;2024-01-27T10:16:06;9.50;1.00
1476;DHT22;730;48.870;12.542;2024-01-27T10:18:33;9.50;1.00
1476;DHT22;730;48.870;12.542;2024-01-27T10:21:00;9.50;1.00
1476;DHT22;730;48.870;12.542;2024-01-27T10:23:26;9.50;1.00
1476;DHT22;730;48.870;12.542;2024-01-27T10:25:52;9.40;1.00
1476;DHT22;730;48.870;12.542;2024-01-27T10:28:19;9.30;1.00
1476;DHT22;730;48.870;12.542;2024-01-27T10:30:45;9.30;1.00
1476;DHT22;730;48.870;12.542;2024-01-27T10:33:15;9.30;1.00
1476;DHT22;730;48.870;12.542;2024-01-27T10:35:42;9.30;1.00
1476;DHT22;730;48.870;12.542;2024-01-27T10:38:09;9.30;1.00
1476;DHT22;730;48.870;12.542;2024-01-27T10:40:36;9.40;1.00
1476;DHT22;730;48.870;12.542;2024-01-27T10:43:04;9.50;1.00
1476;DHT22;730;48.870;12.542;2024-01-27T10:45:35;9.30;1.00
1476;DHT22;730;48.870;12.542;2024-01-27T10:48:02;9.40;1.00
1476;DHT22;730;48.870;12.542;2024-01-27T10:50:29;9.40;1.00
1476;DHT22;730;48.870;12.542;2024-01-27T10:52:58;9.50;1.00
1476;DHT22;730;48.870;12.542;2024-01-27T10:55:25;9.50;1.00
1476;DHT22;730;48.870;12.542;2024-01-27T10:57:52;9.60;1.00
1476;DHT22;730;48.870;12.542;2024-01-27T11:00:20;9.60;1.00
1476;DHT22;730;48.870;12.542;2024-01-27T11:02:47;9.70;1.00
1476;DHT22;730;48.870;12.542;2024-01-27T11:05:19;9.70;1.00
1476;DHT22;730;48.870;12.542;2024-01-27T11:07:46;9.70;1.00
1476;DHT22;730;48.870;12.542;2024-01-27T11:10:12;9.60;1.00
1476;DHT22;730;48.870;12.542;2024-01-27T11:12:39;9.60;1.00
1476;DHT22;730;48.870;12.542;2024-01-27T11:15:06;9.60;1.00
1476;DHT22;730;48.870;12.542;2024-01-27T11:17:42;9.60;1.00
1476;DHT22;730;48.870;12.542;2024-01-27T11:20:09;9.60;1.00
1476;DHT22;730;48.870;12.542;2024-01-27T11:22:37;9.60;1.00
1476;DHT22;730;48.870;12.542;2024-01-27T11:27:33;9.60;1.00
1476;DHT22;730;48.870;12.542;2024-01-27T11:30:00;9.60;1.00
1476;DHT22;730;48.870;12.542;2024-01-27T11:32:26;9.50;1.00
1476;DHT22;730;48.870;12.542;2024-01-27T11:34:52;9.50;1.00
1476;DHT22;730;48.870;12.542;2024-01-27T11:37:18;9.40;1.00
1476;DHT22;730;48.870;12.542;2024-01-27T11:39:51;9.30;1.00
1476;DHT22;730;48.870;12.542;2024-01-27T11:42:18;9.30;1.00
1476;DHT22;730;48.870;12.542;2024-01-27T11:44:44;9.20;1.00
1476;DHT22;730;48.870;12.542;2024-01-27T11:47:17;9.20;1.00
1476;DHT22;730;48.870;12.542;2024-01-27T11:49:51;9.10;1.00
1476;DHT22;730;48.870;12.542;2024-01-27T11:52:19;9.10;1.00
1476;DHT22;730;48.870;12.542;2024-01-27T11:54:45;9.10;1.00
1476;DHT22;730;48.870;12.542;2024-01-27T11:57:11;9.10;1.00
1476;DHT22;730;48.870;12.542;2024-01-27T11:59:37;9.00;1.00
1476;DHT22;730;48.870;12.542;2024-01-27T12:02:03;9.00;1.00
1476;DHT22;730;48.870;12.542;2024-01-27T12:04:30;8.90;1.00
1476;DHT22;730;48.870;12.542;2024-01-27T12:06:56;8.90;1.00
1476;DHT22;730;48.870;12.542;2024-01-27T12:09:22;8.90;1.00
1476;DHT22;730;48.870;12.542;2024-01-27T12:11:53;8.90;1.00
1476;DHT22;730;48.870;12.542;2024-01-27T12:14:19;8.90;1.00
1476;DHT22;730;48.870;12.542;2024-01-27T12:16:45;9.00;1.00
1476;DHT22;730;48.870;12.542;2024-01-27T12:19:13;9.10;1.00
1476;DHT22;730;48.870;12.542;2024-01-27T12:21:47;9.20;1.00
1476;DHT22;730;48.870;12.542;2024-01-27T12:24:16;9.20;1.00
1476;DHT22;730;48.870;12.542;2024-01-27T12:26:43;9.30;1.00
1476;DHT22;730;48.870;12.542;2024-01-27T12:29:10;9.40;1.00
1476;DHT22;730;48.870;12.542;2024-01-27T12:31:37;9.50;1.00
1476;DHT22;730;48.870;12.542;2024-01-27T12:34:03;9.60;1.00
1476;DHT22;730;48.870;12.542;2024-01-27T12:36:29;9.80;1.00
1476;DHT22;730;48.870;12.542;2024-01-27T12:39:00;9.90;1.00
1476;DHT22;730;48.870;12.542;2024-01-27T12:41:26;10.00;1.00
1476;DHT22;730;48.870;12.542;2024-01-27T12:43:54;10.20;1.00
1476;DHT22;730;48.870;12.542;2024-01-27T12:46:20;10.20;1.00
1476;DHT22;730;48.870;12.542;2024-01-27T12:48:47;10.40;1.00
1476;DHT22;730;48.870;12.542;2024-01-27T12:51:13;10.50;1.00
1476;DHT22;730;48.870;12.542;2024-01-27T12:53:41;10.60;1.00
1476;DHT22;730;48.870;12.542;2024-01-27T12:56:10;10.60;1.00
1476;DHT22;730;48.870;12.542;2024-01-27T12:58:37;10.80;1.00
1476;DHT22;730;48.870;12.542;2024-01-27T13:01:03;10.90;1.00
1476;DHT22;730;48.870;12.542;2024-01-27T13:03:30;11.00;1.00
1476;DHT22;730;48.870;12.542;2024-01-27T13:05:56;11.20;1.00
1476;DHT22;730;48.870;12.542;2024-01-27T13:08:22;11.30;1.00
1476;DHT22;730;48.870;12.542;2024-01-27T13:10:49;11.40;1.00
1476;DHT22;730;48.870;12.542;2024-01-27T13:13:15;11.60;1.00
1476;DHT22;730;48.870;12.542;2024-01-27T13:15:42;11.70;1.00
1476;DHT22;730;48.870;12.542;2024-01-27T13:18:12;11.80;1.00
1476;DHT22;730;48.870;12.542;2024-01-27T13:20:38;12.00;1.00
1476;DHT22;730;48.870;12.542;2024-01-27T13:23:04;12.10;1.00
1476;DHT22;730;48.870;12.542;2024-01-27T13:25:31;12.30;1.00
1476;DHT22;730;48.870;12.542;2024-01-27T13:27:57;12.50;1.00
1476;DHT22;730;48.870;12.542;2024-01-27T13:30:23;12.70;1.00
1476;DHT22;730;48.870;12.542;2024-01-27T13:32:49;12.90;1.00
1476;DHT22;730;48.870;12.542;2024-01-27T13:35:15;13.20;1.00
1476;DHT22;730;48.870;12.542;2024-01-27T13:37:41;13.60;1.00
1476;DHT22;730;48.870;12.542;2024-01-27T13:40:08;13.90;1.00
1476;DHT22;730;48.870;12.542;2024-01-27T13:42:37;14.50;1.00
1476;DHT22;730;48.870;12.542;2024-01-27T13:45:04;15.10;1.00
1476;DHT22;730;48.870;12.542;2024-01-27T13:47:30;15.50;1.00
1476;DHT22;730;48.870;12.542;2024-01-27T13:49:57;16.10;1.00
1476;DHT22;730;48.870;12.542;2024-01-27T13:52:24;16.60;1.00
1476;DHT22;730;48.870;12.542;2024-01-27T13:54:57;17.40;1.00
1476;DHT22;730;48.870;12.542;2024-01-27T13:57:23;18.00;1.00
1476;DHT22;730;48.870;12.542;2024-01-27T13:59:49;18.70;1.00
1476;DHT22;730;48.870;12.542;2024-01-27T14:02:15;19.60;1.00
1476;DHT22;730;48.870;12.542;2024-01-27T14:04:42;20.90;1.00
1476;DHT22;730;48.870;12.542;2024-01-27T14:07:08;22.10;1.00
1476;DHT22;730;48.870;12.542;2024-01-27T14:09:35;23.20;1.00
1476;DHT22;730;48.870;12.542;2024-01-27T14:12:01;24.30;1.00
1476;DHT22;730;48.870;12.542;2024-01-27T14:14:28;25.50;1.00
1476;DHT22;730;48.870;12.542;2024-01-27T14:16:54;26.30;1.00
1476;DHT22;730;48.870;12.542;2024-01-27T14:19:20;27.00;1.00
1476;DHT22;730;48.870;12.542;2024-01-27T14:21:46;27.50;1.00
1476;DHT22;730;48.870;12.542;2024-01-27T14:24:12;27.90;1.00
1476;DHT22;730;48.870;12.542;2024-01-27T14:26:38;28.40;1.00
1476;DHT22;730;48.870;12.542;2024-01-27T14:29:04;28.60;1.00
1476;DHT22;730;48.870;12.542;2024-01-27T14:31:30;28.70;1.00
1476;DHT22;730;48.870;12.542;2024-01-27T14:33:57;28.60;1.00
1476;DHT22;730;48.870;12.542;2024-01-27T14:36:24;28.50;1.00
1476;DHT22;730;48.870;12.542;2024-01-27T14:38:51;28.60;1.00
1476;DHT22;730;48.870;12.542;2024-01-27T14:41:17;28.70;1.00
1476;DHT22;730;48.870;12.542;2024-01-27T14:43:43;28.70;1.00
1476;DHT22;730;48.870;12.542;2024-01-27T14:46:10;28.70;1.00
1476;DHT22;730;48.870;12.542;2024-01-27T14:48:36;28.60;1.00
1476;DHT22;730;48.870;12.542;2024-01-27T14:51:03;28.50;1.00
1476;DHT22;730;48.870;12.542;2024-01-27T14:53:29;28.40;1.00
1476;DHT22;730;48.870;12.542;2024-01-27T14:55:55;28.40;1.00
1476;DHT22;730;48.870;12.542;2024-01-27T14:58:23;28.30;1.00
1476;DHT22;730;48.870;12.542;2024-01-27T15:00:49;28.30;1.00
1476;DHT22;730;48.870;12.542;2024-01-27T15:03:22;28.30;1.00
1476;DHT22;730;48.870;12.542;2024-01-27T15:05:50;28.10;1.00
1476;DHT22;730;48.870;12.542;2024-01-27T15:08:16;27.90;1.00
1476;DHT22;730;48.870;12.542;2024-01-27T15:10:43;27.80;1.00
1476;DHT22;730;48.870;12.542;2024-01-27T15:13:10;27.60;1.00
1476;DHT22;730;48.870;12.542;2024-01-27T15:15:40;27.40;1.00
1476;DHT22;730;48.870;12.542;2024-01-27T15:18:07;27.10;1.00
1476;DHT22;730;48.870;12.542;2024-01-27T15:20:35;26.70;1.00
1476;DHT22;730;48.870;12.542;2024-01-27T15:23:02;26.30;1.00
1476;DHT22;730;48.870;12.542;2024-01-27T15:25:28;25.90;1.00
1476;DHT22;730;48.870;12.542;2024-01-27T15:27:54;25.20;1.00
1476;DHT22;730;48.870;12.542;2024-01-27T15:30:20;24.20;1.00
1476;DHT22;730;48.870;12.542;2024-01-27T15:32:47;23.10;1.00
1476;DHT22;730;48.870;12.542;2024-01-27T15:35:13;22.00;1.00
1476;DHT22;730;48.870;12.542;2024-01-27T15:37:39;20.80;1.00
1476;DHT22;730;48.870;12.542;2024-01-27T15:40:07;19.70;1.00
1476;DHT22;730;48.870;12.542;2024-01-27T15:42:35;18.70;1.00
1476;DHT22;730;48.870;12.542;2024-01-27T15:45:03;17.80;1.00
1476;DHT22;730;48.870;12.542;2024-01-27T15:47:30;16.90;1.00
1476;DHT22;730;48.870;12.542;2024-01-27T15:49:56;16.10;1.00
1476;DHT22;730;48.870;12.542;2024-01-27T15:52:29;15.40;1.00
1476;DHT22;730;48.870;12.542;2024-01-27T15:54:55;14.70;1.00
1476;DHT22;730;48.870;12.542;2024-01-27T15:57:21;14.10;1.00
1476;DHT22;730;48.870;12.542;2024-01-27T15:59:49;13.60;1.00
1476;DHT22;730;48.870;12.542;2024-01-27T16:02:15;13.10;1.00
1476;DHT22;730;48.870;12.542;2024-01-27T16:04:41;12.70;1.00
1476;DHT22;730;48.870;12.542;2024-01-27T16:07:07;12.30;1.00
1476;DHT22;730;48.870;12.542;2024-01-27T16:09:33;11.80;1.00
1476;DHT22;730;48.870;12.542;2024-01-27T16:12:08;11.50;1.00
1476;DHT22;730;48.870;12.542;2024-01-27T16:14:34;11.20;1.00
1476;DHT22;730;48.870;12.542;2024-01-27T16:17:01;10.90;1.00
1476;DHT22;730;48.870;12.542;2024-01-27T16:19:27;10.60;1.00
1476;DHT22;730;48.870;12.542;2024-01-27T16:21:53;10.30;1.00
1476;DHT22;730;48.870;12.542;2024-01-27T16:24:20;10.00;1.00
1476;DHT22;730;48.870;12.542;2024-01-27T16:26:46;9.70;1.00
1476;DHT22;730;48.870;12.542;2024-01-27T16:29:12;9.40;1.00
1476;DHT22;730;48.870;12.542;2024-01-27T16:31:38;9.20;1.00